sensor_id;sensor_type;location;lat;lon;timestamp;P1;durP1;ratioP1;P2;durP2;ratioP2
37847;SDS011;23688;33.130;-117.188;2023-05-10T00:00:35;14.52;;;2.88;;
37847;SDS011;23688;33.130;-117.188;2023-05-10T00:03:02;10.63;;;2.75;;
37847;SDS011;23688;33.130;-117.188;2023-05-10T00:05:30;20.88;;;3.75;;
37847;SDS011;23688;33.130;-117.188;2023-05-10T00:07:57;12.50;;;2.33;;
37847;SDS011;23688;33.130;-117.188;2023-05-10T00:10:23;13.40;;;2.72;;
37847;SDS011;23688;33.130;-117.188;2023-05-10T00:12:50;15.23;;;3.20;;
37847;SDS011;23688;33.130;-117.188;2023-05-10T00:15:16;13.35;;;3.25;;
37847;SDS011;23688;33.130;-117.188;2023-05-10T00:17:42;14.10;;;2.63;;
37847;SDS011;23688;33.130;-117.188;2023-05-10T00:20:09;16.85;;;3.15;;
37847;SDS011;23688;33.130;-117.188;2023-05-10T00:22:36;11.50;;;2.30;;
37847;SDS011;23688;33.130;-117.188;2023-05-10T00:25:02;16.08;;;2.85;;
37847;SDS011;23688;33.130;-117.188;2023-05-10T00:27:28;15.00;;;2.45;;
37847;SDS011;23688;33.130;-117.188;2023-05-10T00:29:58;10.38;;;3.20;;
37847;SDS011;23688;33.130;-117.188;2023-05-10T00:32:24;13.35;;;3.13;;
37847;SDS011;23688;33.130;-117.188;2023-05-10T00:34:51;18.73;;;3.60;;
37847;SDS011;23688;33.130;-117.188;2023-05-10T00:37:17;15.50;;;3.17;;
37847;SDS011;23688;33.130;-117.188;2023-05-10T00:39:43;16.13;;;2.92;;
37847;SDS011;23688;33.130;-117.188;2023-05-10T00:42:10;22.98;;;3.47;;
37847;SDS011;23688;33.130;-117.188;2023-05-10T00:44:36;15.48;;;3.15;;
37847;SDS011;23688;33.130;-117.188;2023-05-10T00:47:03;15.25;;;3.33;;
37847;SDS011;23688;33.130;-117.188;2023-05-10T00:49:29;17.38;;;3.50;;
37847;SDS011;23688;33.130;-117.188;2023-05-10T00:51:58;13.07;;;3.30;;
37847;SDS011;23688;33.130;-117.188;2023-05-10T00:54:25;22.15;;;3.67;;
37847;SDS011;23688;33.130;-117.188;2023-05-10T00:56:51;16.23;;;3.08;;
37847;SDS011;23688;33.130;-117.188;2023-05-10T00:59:20;11.80;;;3.25;;
37847;SDS011;23688;33.130;-117.188;2023-05-10T01:01:47;15.48;;;3.08;;
37847;SDS011;23688;33.130;-117.188;2023-05-10T01:04:14;17.23;;;3.10;;
37847;SDS011;23688;33.130;-117.188;2023-05-10T01:06:41;16.50;;;3.63;;
37847;SDS011;23688;33.130;-117.188;2023-05-10T01:09:08;19.38;;;3.53;;
37847;SDS011;23688;33.130;-117.188;2023-05-10T01:11:35;19.55;;;3.30;;
37847;SDS011;23688;33.130;-117.188;2023-05-10T01:14:03;24.75;;;3.50;;
37847;SDS011;23688;33.130;-117.188;2023-05-10T01:16:35;17.47;;;3.33;;
37847;SDS011;23688;33.130;-117.188;2023-05-10T01:19:04;22.58;;;4.35;;
37847;SDS011;23688;33.130;-117.188;2023-05-10T01:38:59;14.18;;;3.35;;
37847;SDS011;23688;33.130;-117.188;2023-05-10T01:47:46;15.48;;;3.25;;
37847;SDS011;23688;33.130;-117.188;2023-05-10T01:50:11;11.55;;;3.15;;
37847;SDS011;23688;33.130;-117.188;2023-05-10T01:52:42;25.60;;;4.30;;
37847;SDS011;23688;33.130;-117.188;2023-05-10T01:55:16;15.30;;;2.80;;
37847;SDS011;23688;33.130;-117.188;2023-05-10T01:57:46;12.20;;;3.00;;
37847;SDS011;23688;33.130;-117.188;2023-05-10T02:00:13;20.00;;;3.72;;
37847;SDS011;23688;33.130;-117.188;2023-05-10T02:02:42;19.50;;;4.10;;
37847;SDS011;23688;33.130;-117.188;2023-05-10T02:05:11;20.10;;;3.58;;
37847;SDS011;23688;33.130;-117.188;2023-05-10T02:07:40;15.32;;;3.63;;
37847;SDS011;23688;33.130;-117.188;2023-05-10T02:10:08;19.58;;;3.40;;
37847;SDS011;23688;33.130;-117.188;2023-05-10T02:12:36;17.67;;;3.10;;
37847;SDS011;23688;33.130;-117.188;2023-05-10T02:15:07;21.25;;;3.42;;
37847;SDS011;23688;33.130;-117.188;2023-05-10T02:17:37;19.48;;;3.95;;
37847;SDS011;23688;33.130;-117.188;2023-05-10T02:22:32;22.02;;;3.65;;
37847;SDS011;23688;33.130;-117.188;2023-05-10T02:25:00;16.92;;;3.60;;
37847;SDS011;23688;33.130;-117.188;2023-05-10T02:27:28;19.55;;;4.38;;
37847;SDS011;23688;33.130;-117.188;2023-05-10T02:29:56;17.85;;;3.63;;
37847;SDS011;23688;33.130;-117.188;2023-05-10T02:32:24;14.30;;;2.93;;
37847;SDS011;23688;33.130;-117.188;2023-05-10T02:34:52;19.95;;;3.92;;
37847;SDS011;23688;33.130;-117.188;2023-05-10T02:37:20;15.70;;;3.57;;
37847;SDS011;23688;33.130;-117.188;2023-05-10T02:39:48;20.70;;;3.42;;
37847;SDS011;23688;33.130;-117.188;2023-05-10T02:42:16;23.27;;;4.32;;
37847;SDS011;23688;33.130;-117.188;2023-05-10T02:47:16;14.55;;;3.20;;
37847;SDS011;23688;33.130;-117.188;2023-05-10T02:49:44;15.70;;;3.53;;
37847;SDS011;23688;33.130;-117.188;2023-05-10T02:52:10;10.98;;;3.20;;
37847;SDS011;23688;33.130;-117.188;2023-05-10T02:54:45;23.27;;;3.67;;
37847;SDS011;23688;33.130;-117.188;2023-05-10T02:57:21;20.95;;;3.85;;
37847;SDS011;23688;33.130;-117.188;2023-05-10T02:59:51;16.65;;;3.58;;
37847;SDS011;23688;33.130;-117.188;2023-05-10T03:02:18;19.30;;;3.22;;
37847;SDS011;23688;33.130;-117.188;2023-05-10T03:04:45;15.00;;;3.17;;
37847;SDS011;23688;33.130;-117.188;2023-05-10T03:07:12;15.32;;;3.60;;
37847;SDS011;23688;33.130;-117.188;2023-05-10T03:09:39;14.05;;;3.08;;
37847;SDS011;23688;33.130;-117.188;2023-05-10T03:12:21;10.32;;;3.28;;
37847;SDS011;23688;33.130;-117.188;2023-05-10T03:20:36;17.83;;;3.60;;
37847;SDS011;23688;33.130;-117.188;2023-05-10T03:26:03;27.75;;;4.15;;
37847;SDS011;23688;33.130;-117.188;2023-05-10T03:28:31;24.88;;;4.25;;
37847;SDS011;23688;33.130;-117.188;2023-05-10T03:31:00;22.80;;;3.85;;
37847;SDS011;23688;33.130;-117.188;2023-05-10T03:33:28;23.20;;;4.40;;
37847;SDS011;23688;33.130;-117.188;2023-05-10T03:35:55;28.70;;;5.13;;
37847;SDS011;23688;33.130;-117.188;2023-05-10T03:38:21;32.40;;;5.30;;
37847;SDS011;23688;33.130;-117.188;2023-05-10T03:40:47;25.67;;;4.75;;
37847;SDS011;23688;33.130;-117.188;2023-05-10T03:43:13;30.77;;;4.63;;
37847;SDS011;23688;33.130;-117.188;2023-05-10T03:45:40;23.48;;;4.93;;
37847;SDS011;23688;33.130;-117.188;2023-05-10T03:48:06;17.00;;;3.85;;
37847;SDS011;23688;33.130;-117.188;2023-05-10T03:50:32;25.02;;;4.65;;
37847;SDS011;23688;33.130;-117.188;2023-05-10T03:52:59;24.58;;;4.53;;
37847;SDS011;23688;33.130;-117.188;2023-05-10T03:55:25;24.08;;;4.25;;
37847;SDS011;23688;33.130;-117.188;2023-05-10T03:57:51;24.98;;;4.38;;
37847;SDS011;23688;33.130;-117.188;2023-05-10T04:00:19;31.13;;;4.78;;
37847;SDS011;23688;33.130;-117.188;2023-05-10T04:02:46;21.92;;;3.88;;
37847;SDS011;23688;33.130;-117.188;2023-05-10T04:05:12;27.75;;;4.93;;
37847;SDS011;23688;33.130;-117.188;2023-05-10T04:07:38;25.38;;;5.03;;
37847;SDS011;23688;33.130;-117.188;2023-05-10T04:10:04;22.77;;;3.75;;
37847;SDS011;23688;33.130;-117.188;2023-05-10T04:14:59;18.73;;;3.65;;
37847;SDS011;23688;33.130;-117.188;2023-05-10T04:17:26;29.10;;;4.78;;
37847;SDS011;23688;33.130;-117.188;2023-05-10T04:19:52;21.98;;;4.53;;
37847;SDS011;23688;33.130;-117.188;2023-05-10T04:22:20;34.55;;;5.57;;
37847;SDS011;23688;33.130;-117.188;2023-05-10T04:24:46;31.73;;;5.68;;
37847;SDS011;23688;33.130;-117.188;2023-05-10T04:27:12;24.83;;;5.00;;
37847;SDS011;23688;33.130;-117.188;2023-05-10T04:29:38;23.80;;;3.33;;
37847;SDS011;23688;33.130;-117.188;2023-05-10T04:32:05;22.17;;;4.65;;
37847;SDS011;23688;33.130;-117.188;2023-05-10T04:34:31;27.80;;;4.32;;
37847;SDS011;23688;33.130;-117.188;2023-05-10T04:36:59;23.37;;;4.40;;
37847;SDS011;23688;33.130;-117.188;2023-05-10T04:39:26;26.88;;;4.13;;
37847;SDS011;23688;33.130;-117.188;2023-05-10T04:41:52;21.73;;;4.30;;
37847;SDS011;23688;33.130;-117.188;2023-05-10T04:44:18;28.70;;;3.83;;
37847;SDS011;23688;33.130;-117.188;2023-05-10T04:46:45;31.17;;;5.45;;
37847;SDS011;23688;33.130;-117.188;2023-05-10T04:49:11;24.77;;;4.28;;
37847;SDS011;23688;33.130;-117.188;2023-05-10T04:51:37;27.27;;;5.22;;
37847;SDS011;23688;33.130;-117.188;2023-05-10T04:54:04;24.00;;;4.32;;
37847;SDS011;23688;33.130;-117.188;2023-05-10T04:56:30;29.30;;;4.63;;
37847;SDS011;23688;33.130;-117.188;2023-05-10T04:58:57;30.85;;;4.78;;
37847;SDS011;23688;33.130;-117.188;2023-05-10T05:01:23;36.03;;;5.20;;
37847;SDS011;23688;33.130;-117.188;2023-05-10T05:03:49;24.63;;;4.40;;
37847;SDS011;23688;33.130;-117.188;2023-05-10T05:06:18;29.40;;;5.40;;
37847;SDS011;23688;33.130;-117.188;2023-05-10T05:08:46;29.20;;;4.70;;
37847;SDS011;23688;33.130;-117.188;2023-05-10T05:11:14;28.75;;;4.53;;
37847;SDS011;23688;33.130;-117.188;2023-05-10T05:13:40;28.98;;;5.70;;
37847;SDS011;23688;33.130;-117.188;2023-05-10T05:16:07;29.27;;;4.68;;
37847;SDS011;23688;33.130;-117.188;2023-05-10T05:18:36;26.42;;;5.53;;
37847;SDS011;23688;33.130;-117.188;2023-05-10T05:21:12;19.73;;;4.55;;
37847;SDS011;23688;33.130;-117.188;2023-05-10T05:23:43;17.50;;;3.78;;
37847;SDS011;23688;33.130;-117.188;2023-05-10T05:26:11;15.30;;;4.13;;
37847;SDS011;23688;33.130;-117.188;2023-05-10T05:28:37;18.63;;;2.83;;
37847;SDS011;23688;33.130;-117.188;2023-05-10T05:31:04;12.70;;;2.35;;
37847;SDS011;23688;33.130;-117.188;2023-05-10T05:33:31;21.02;;;2.75;;
37847;SDS011;23688;33.130;-117.188;2023-05-10T05:35:59;14.90;;;3.33;;
37847;SDS011;23688;33.130;-117.188;2023-05-10T05:38:29;20.33;;;3.67;;
37847;SDS011;23688;33.130;-117.188;2023-05-10T05:40:55;15.30;;;4.50;;
37847;SDS011;23688;33.130;-117.188;2023-05-10T05:43:21;10.68;;;2.50;;
37847;SDS011;23688;33.130;-117.188;2023-05-10T05:45:48;20.83;;;2.92;;
37847;SDS011;23688;33.130;-117.188;2023-05-10T05:48:17;23.55;;;3.90;;
37847;SDS011;23688;33.130;-117.188;2023-05-10T05:50:44;18.65;;;3.83;;
37847;SDS011;23688;33.130;-117.188;2023-05-10T05:53:13;20.88;;;3.63;;
37847;SDS011;23688;33.130;-117.188;2023-05-10T05:55:39;27.80;;;5.18;;
37847;SDS011;23688;33.130;-117.188;2023-05-10T05:58:06;21.95;;;3.55;;
37847;SDS011;23688;33.130;-117.188;2023-05-10T06:00:32;26.90;;;4.10;;
37847;SDS011;23688;33.130;-117.188;2023-05-10T06:02:58;25.27;;;3.72;;
37847;SDS011;23688;33.130;-117.188;2023-05-10T06:05:24;17.95;;;3.60;;
37847;SDS011;23688;33.130;-117.188;2023-05-10T06:07:51;16.67;;;3.53;;
37847;SDS011;23688;33.130;-117.188;2023-05-10T06:10:17;14.57;;;2.70;;
37847;SDS011;23688;33.130;-117.188;2023-05-10T06:12:43;16.00;;;2.85;;
37847;SDS011;23688;33.130;-117.188;2023-05-10T06:15:10;14.27;;;2.53;;
37847;SDS011;23688;33.130;-117.188;2023-05-10T06:17:36;12.57;;;3.95;;
37847;SDS011;23688;33.130;-117.188;2023-05-10T06:20:04;20.77;;;5.07;;
37847;SDS011;23688;33.130;-117.188;2023-05-10T06:22:31;16.00;;;3.70;;
37847;SDS011;23688;33.130;-117.188;2023-05-10T06:24:57;18.42;;;3.30;;
37847;SDS011;23688;33.130;-117.188;2023-05-10T06:27:23;25.88;;;4.28;;
37847;SDS011;23688;33.130;-117.188;2023-05-10T06:29:49;14.40;;;3.20;;
37847;SDS011;23688;33.130;-117.188;2023-05-10T06:32:16;17.00;;;3.13;;
37847;SDS011;23688;33.130;-117.188;2023-05-10T06:34:42;21.73;;;4.60;;
37847;SDS011;23688;33.130;-117.188;2023-05-10T06:37:09;22.40;;;3.50;;
37847;SDS011;23688;33.130;-117.188;2023-05-10T06:39:36;26.77;;;3.97;;
37847;SDS011;23688;33.130;-117.188;2023-05-10T06:42:02;15.70;;;3.28;;
37847;SDS011;23688;33.130;-117.188;2023-05-10T06:44:31;13.85;;;3.08;;
37847;SDS011;23688;33.130;-117.188;2023-05-10T06:46:57;20.70;;;4.82;;
37847;SDS011;23688;33.130;-117.188;2023-05-10T06:49:24;18.02;;;2.65;;
37847;SDS011;23688;33.130;-117.188;2023-05-10T06:51:50;16.10;;;3.08;;
37847;SDS011;23688;33.130;-117.188;2023-05-10T06:54:17;21.85;;;3.20;;
37847;SDS011;23688;33.130;-117.188;2023-05-10T06:56:43;23.35;;;3.60;;
37847;SDS011;23688;33.130;-117.188;2023-05-10T06:59:09;18.88;;;2.97;;
37847;SDS011;23688;33.130;-117.188;2023-05-10T07:01:37;17.67;;;3.08;;
37847;SDS011;23688;33.130;-117.188;2023-05-10T07:04:04;14.02;;;2.95;;
37847;SDS011;23688;33.130;-117.188;2023-05-10T07:06:32;19.83;;;3.22;;
37847;SDS011;23688;33.130;-117.188;2023-05-10T07:08:59;17.63;;;3.47;;
37847;SDS011;23688;33.130;-117.188;2023-05-10T07:11:25;23.00;;;3.70;;
37847;SDS011;23688;33.130;-117.188;2023-05-10T07:13:52;16.85;;;3.25;;
37847;SDS011;23688;33.130;-117.188;2023-05-10T07:16:18;14.43;;;2.88;;
37847;SDS011;23688;33.130;-117.188;2023-05-10T07:18:45;19.65;;;3.58;;
37847;SDS011;23688;33.130;-117.188;2023-05-10T07:21:11;12.65;;;2.60;;
37847;SDS011;23688;33.130;-117.188;2023-05-10T07:23:37;16.75;;;3.15;;
37847;SDS011;23688;33.130;-117.188;2023-05-10T07:26:04;15.57;;;2.22;;
37847;SDS011;23688;33.130;-117.188;2023-05-10T07:28:32;17.88;;;3.15;;
37847;SDS011;23688;33.130;-117.188;2023-05-10T07:30:58;14.05;;;2.63;;
37847;SDS011;23688;33.130;-117.188;2023-05-10T07:33:24;13.55;;;3.20;;
37847;SDS011;23688;33.130;-117.188;2023-05-10T07:35:51;10.60;;;2.60;;
37847;SDS011;23688;33.130;-117.188;2023-05-10T07:38:17;12.43;;;3.20;;
37847;SDS011;23688;33.130;-117.188;2023-05-10T07:40:43;20.80;;;2.70;;
37847;SDS011;23688;33.130;-117.188;2023-05-10T07:43:10;11.15;;;2.25;;
37847;SDS011;23688;33.130;-117.188;2023-05-10T07:45:36;10.98;;;3.67;;
37847;SDS011;23688;33.130;-117.188;2023-05-10T07:48:02;13.52;;;3.05;;
37847;SDS011;23688;33.130;-117.188;2023-05-10T07:50:29;14.80;;;2.40;;
37847;SDS011;23688;33.130;-117.188;2023-05-10T07:52:55;22.10;;;2.65;;
37847;SDS011;23688;33.130;-117.188;2023-05-10T07:55:21;19.33;;;2.78;;
37847;SDS011;23688;33.130;-117.188;2023-05-10T07:57:48;13.70;;;2.53;;
37847;SDS011;23688;33.130;-117.188;2023-05-10T08:00:16;12.00;;;2.67;;
37847;SDS011;23688;33.130;-117.188;2023-05-10T08:02:44;21.48;;;3.50;;
37847;SDS011;23688;33.130;-117.188;2023-05-10T08:05:10;18.50;;;2.85;;
37847;SDS011;23688;33.130;-117.188;2023-05-10T08:07:36;13.73;;;2.50;;
37847;SDS011;23688;33.130;-117.188;2023-05-10T08:10:03;22.88;;;3.47;;
37847;SDS011;23688;33.130;-117.188;2023-05-10T08:12:30;13.20;;;2.50;;
37847;SDS011;23688;33.130;-117.188;2023-05-10T08:14:56;14.05;;;2.53;;
37847;SDS011;23688;33.130;-117.188;2023-05-10T08:17:23;18.90;;;3.00;;
37847;SDS011;23688;33.130;-117.188;2023-05-10T08:19:49;9.30;;;2.40;;
37847;SDS011;23688;33.130;-117.188;2023-05-10T08:22:15;17.17;;;3.40;;
37847;SDS011;23688;33.130;-117.188;2023-05-10T08:24:42;17.42;;;3.83;;
37847;SDS011;23688;33.130;-117.188;2023-05-10T08:27:08;11.40;;;3.42;;
37847;SDS011;23688;33.130;-117.188;2023-05-10T08:29:34;11.60;;;2.80;;
37847;SDS011;23688;33.130;-117.188;2023-05-10T08:32:01;16.42;;;2.65;;
37847;SDS011;23688;33.130;-117.188;2023-05-10T08:34:27;11.82;;;2.55;;
37847;SDS011;23688;33.130;-117.188;2023-05-10T08:36:53;20.88;;;2.72;;
37847;SDS011;23688;33.130;-117.188;2023-05-10T08:39:20;17.05;;;2.97;;
37847;SDS011;23688;33.130;-117.188;2023-05-10T08:41:46;14.07;;;3.00;;
37847;SDS011;23688;33.130;-117.188;2023-05-10T08:44:13;18.73;;;3.45;;
37847;SDS011;23688;33.130;-117.188;2023-05-10T08:46:41;18.25;;;4.45;;
37847;SDS011;23688;33.130;-117.188;2023-05-10T08:49:13;22.55;;;3.55;;
37847;SDS011;23688;33.130;-117.188;2023-05-10T08:51:43;21.33;;;3.03;;
37847;SDS011;23688;33.130;-117.188;2023-05-10T08:54:16;19.20;;;3.13;;
37847;SDS011;23688;33.130;-117.188;2023-05-10T08:56:43;17.77;;;3.90;;
37847;SDS011;23688;33.130;-117.188;2023-05-10T08:59:09;12.55;;;2.83;;
37847;SDS011;23688;33.130;-117.188;2023-05-10T09:01:37;15.02;;;2.60;;
37847;SDS011;23688;33.130;-117.188;2023-05-10T09:04:04;10.43;;;2.67;;
37847;SDS011;23688;33.130;-117.188;2023-05-10T09:06:31;13.40;;;3.03;;
37847;SDS011;23688;33.130;-117.188;2023-05-10T09:08:58;15.80;;;2.90;;
37847;SDS011;23688;33.130;-117.188;2023-05-10T09:11:26;18.23;;;3.78;;
37847;SDS011;23688;33.130;-117.188;2023-05-10T09:13:54;15.93;;;3.25;;
37847;SDS011;23688;33.130;-117.188;2023-05-10T09:16:21;15.25;;;3.40;;
37847;SDS011;23688;33.130;-117.188;2023-05-10T09:18:49;20.83;;;3.53;;
37847;SDS011;23688;33.130;-117.188;2023-05-10T09:21:15;17.58;;;3.60;;
37847;SDS011;23688;33.130;-117.188;2023-05-10T09:23:45;17.42;;;3.60;;
37847;SDS011;23688;33.130;-117.188;2023-05-10T09:26:12;16.77;;;3.00;;
37847;SDS011;23688;33.130;-117.188;2023-05-10T09:28:52;14.48;;;2.80;;
37847;SDS011;23688;33.130;-117.188;2023-05-10T09:31:22;13.77;;;2.47;;
37847;SDS011;23688;33.130;-117.188;2023-05-10T09:33:51;14.32;;;3.33;;
37847;SDS011;23688;33.130;-117.188;2023-05-10T09:36:18;9.18;;;2.58;;
37847;SDS011;23688;33.130;-117.188;2023-05-10T09:38:45;11.68;;;2.75;;
37847;SDS011;23688;33.130;-117.188;2023-05-10T09:41:16;14.02;;;2.95;;
37847;SDS011;23688;33.130;-117.188;2023-05-10T09:43:43;14.25;;;2.60;;
37847;SDS011;23688;33.130;-117.188;2023-05-10T09:46:10;17.55;;;2.92;;
37847;SDS011;23688;33.130;-117.188;2023-05-10T09:48:46;16.00;;;2.97;;
37847;SDS011;23688;33.130;-117.188;2023-05-10T09:51:19;11.45;;;2.47;;
37847;SDS011;23688;33.130;-117.188;2023-05-10T09:53:47;14.15;;;2.95;;
37847;SDS011;23688;33.130;-117.188;2023-05-10T09:59:05;17.10;;;2.40;;
37847;SDS011;23688;33.130;-117.188;2023-05-10T10:01:35;18.40;;;2.67;;
37847;SDS011;23688;33.130;-117.188;2023-05-10T10:04:05;11.70;;;2.40;;
37847;SDS011;23688;33.130;-117.188;2023-05-10T10:06:39;12.00;;;2.50;;
37847;SDS011;23688;33.130;-117.188;2023-05-10T10:09:06;14.43;;;2.60;;
37847;SDS011;23688;33.130;-117.188;2023-05-10T10:11:34;15.52;;;2.85;;
37847;SDS011;23688;33.130;-117.188;2023-05-10T10:14:03;9.77;;;2.53;;
37847;SDS011;23688;33.130;-117.188;2023-05-10T10:16:31;13.20;;;2.60;;
37847;SDS011;23688;33.130;-117.188;2023-05-10T10:21:26;5.93;;;1.80;;
37847;SDS011;23688;33.130;-117.188;2023-05-10T10:23:52;13.70;;;2.13;;
37847;SDS011;23688;33.130;-117.188;2023-05-10T10:26:19;15.00;;;3.20;;
37847;SDS011;23688;33.130;-117.188;2023-05-10T10:34:28;22.85;;;2.38;;
37847;SDS011;23688;33.130;-117.188;2023-05-10T10:36:56;12.45;;;2.35;;
37847;SDS011;23688;33.130;-117.188;2023-05-10T10:39:23;12.03;;;2.80;;
37847;SDS011;23688;33.130;-117.188;2023-05-10T10:41:54;16.42;;;3.00;;
37847;SDS011;23688;33.130;-117.188;2023-05-10T10:46:59;16.40;;;2.33;;
37847;SDS011;23688;33.130;-117.188;2023-05-10T10:50:04;14.38;;;2.55;;
37847;SDS011;23688;33.130;-117.188;2023-05-10T10:52:32;9.98;;;2.40;;
37847;SDS011;23688;33.130;-117.188;2023-05-10T10:55:12;13.73;;;2.55;;
37847;SDS011;23688;33.130;-117.188;2023-05-10T10:57:50;16.27;;;2.72;;
37847;SDS011;23688;33.130;-117.188;2023-05-10T11:02:53;9.52;;;2.08;;
37847;SDS011;23688;33.130;-117.188;2023-05-10T11:08:46;17.67;;;2.75;;
37847;SDS011;23688;33.130;-117.188;2023-05-10T11:13:41;17.15;;;2.00;;
37847;SDS011;23688;33.130;-117.188;2023-05-10T11:18:51;10.75;;;2.58;;
37847;SDS011;23688;33.130;-117.188;2023-05-10T11:21:18;11.77;;;2.65;;
37847;SDS011;23688;33.130;-117.188;2023-05-10T11:23:49;10.20;;;2.97;;
37847;SDS011;23688;33.130;-117.188;2023-05-10T11:26:18;13.18;;;2.70;;
37847;SDS011;23688;33.130;-117.188;2023-05-10T11:28:46;10.00;;;2.95;;
37847;SDS011;23688;33.130;-117.188;2023-05-10T11:31:14;11.20;;;2.50;;
37847;SDS011;23688;33.130;-117.188;2023-05-10T11:33:51;8.88;;;1.85;;
37847;SDS011;23688;33.130;-117.188;2023-05-10T11:36:23;18.77;;;2.00;;
37847;SDS011;23688;33.130;-117.188;2023-05-10T11:38:52;17.33;;;2.10;;
37847;SDS011;23688;33.130;-117.188;2023-05-10T11:41:20;6.90;;;1.80;;
37847;SDS011;23688;33.130;-117.188;2023-05-10T11:43:49;19.02;;;2.38;;
37847;SDS011;23688;33.130;-117.188;2023-05-10T11:48:44;12.18;;;2.42;;
37847;SDS011;23688;33.130;-117.188;2023-05-10T11:51:12;9.18;;;2.10;;
37847;SDS011;23688;33.130;-117.188;2023-05-10T11:53:38;14.65;;;2.67;;
37847;SDS011;23688;33.130;-117.188;2023-05-10T11:58:32;12.43;;;2.70;;
37847;SDS011;23688;33.130;-117.188;2023-05-10T12:01:00;11.70;;;2.45;;
37847;SDS011;23688;33.130;-117.188;2023-05-10T12:03:27;15.10;;;3.67;;
37847;SDS011;23688;33.130;-117.188;2023-05-10T12:05:54;12.75;;;2.38;;
37847;SDS011;23688;33.130;-117.188;2023-05-10T12:08:22;11.90;;;2.80;;
37847;SDS011;23688;33.130;-117.188;2023-05-10T12:10:50;12.55;;;2.20;;
37847;SDS011;23688;33.130;-117.188;2023-05-10T12:13:17;12.43;;;2.20;;
37847;SDS011;23688;33.130;-117.188;2023-05-10T12:15:45;11.23;;;2.00;;
37847;SDS011;23688;33.130;-117.188;2023-05-10T12:18:12;21.05;;;2.92;;
37847;SDS011;23688;33.130;-117.188;2023-05-10T12:20:40;13.00;;;2.30;;
37847;SDS011;23688;33.130;-117.188;2023-05-10T12:23:08;13.93;;;2.17;;
37847;SDS011;23688;33.130;-117.188;2023-05-10T12:25:36;10.27;;;2.30;;
37847;SDS011;23688;33.130;-117.188;2023-05-10T12:28:04;11.98;;;2.65;;
37847;SDS011;23688;33.130;-117.188;2023-05-10T12:30:35;10.27;;;2.15;;
37847;SDS011;23688;33.130;-117.188;2023-05-10T12:33:12;12.50;;;2.13;;
37847;SDS011;23688;33.130;-117.188;2023-05-10T12:40:58;8.90;;;2.33;;
37847;SDS011;23688;33.130;-117.188;2023-05-10T12:43:29;12.95;;;2.40;;
37847;SDS011;23688;33.130;-117.188;2023-05-10T12:45:55;10.68;;;2.47;;
37847;SDS011;23688;33.130;-117.188;2023-05-10T12:48:24;17.92;;;3.22;;
37847;SDS011;23688;33.130;-117.188;2023-05-10T12:50:50;11.85;;;2.58;;
37847;SDS011;23688;33.130;-117.188;2023-05-10T12:53:17;13.07;;;2.00;;
37847;SDS011;23688;33.130;-117.188;2023-05-10T12:55:43;10.88;;;2.92;;
37847;SDS011;23688;33.130;-117.188;2023-05-10T12:58:10;13.98;;;1.98;;
37847;SDS011;23688;33.130;-117.188;2023-05-10T13:00:37;12.02;;;1.80;;
37847;SDS011;23688;33.130;-117.188;2023-05-10T13:03:04;8.10;;;2.10;;
37847;SDS011;23688;33.130;-117.188;2023-05-10T13:05:31;10.55;;;2.42;;
37847;SDS011;23688;33.130;-117.188;2023-05-10T13:07:58;13.27;;;2.33;;
37847;SDS011;23688;33.130;-117.188;2023-05-10T13:10:25;12.68;;;2.22;;
37847;SDS011;23688;33.130;-117.188;2023-05-10T13:12:51;12.57;;;2.63;;
37847;SDS011;23688;33.130;-117.188;2023-05-10T13:15:17;22.38;;;2.70;;
37847;SDS011;23688;33.130;-117.188;2023-05-10T13:17:44;11.23;;;2.83;;
37847;SDS011;23688;33.130;-117.188;2023-05-10T13:20:10;19.67;;;3.17;;
37847;SDS011;23688;33.130;-117.188;2023-05-10T13:22:37;12.32;;;2.13;;
37847;SDS011;23688;33.130;-117.188;2023-05-10T13:25:03;12.43;;;2.53;;
37847;SDS011;23688;33.130;-117.188;2023-05-10T13:27:30;13.80;;;2.97;;
37847;SDS011;23688;33.130;-117.188;2023-05-10T13:29:56;10.15;;;2.67;;
37847;SDS011;23688;33.130;-117.188;2023-05-10T13:32:24;14.73;;;2.53;;
37847;SDS011;23688;33.130;-117.188;2023-05-10T13:34:52;13.63;;;2.50;;
37847;SDS011;23688;33.130;-117.188;2023-05-10T13:37:19;10.55;;;2.03;;
37847;SDS011;23688;33.130;-117.188;2023-05-10T13:39:45;13.80;;;2.28;;
37847;SDS011;23688;33.130;-117.188;2023-05-10T13:42:12;12.70;;;3.05;;
37847;SDS011;23688;33.130;-117.188;2023-05-10T13:44:38;18.15;;;2.75;;
37847;SDS011;23688;33.130;-117.188;2023-05-10T13:47:04;11.52;;;2.53;;
37847;SDS011;23688;33.130;-117.188;2023-05-10T13:49:31;13.90;;;2.58;;
37847;SDS011;23688;33.130;-117.188;2023-05-10T13:52:00;12.57;;;2.08;;
37847;SDS011;23688;33.130;-117.188;2023-05-10T13:54:35;15.82;;;2.28;;
37847;SDS011;23688;33.130;-117.188;2023-05-10T13:57:03;14.85;;;2.35;;
37847;SDS011;23688;33.130;-117.188;2023-05-10T13:59:29;13.57;;;2.70;;
37847;SDS011;23688;33.130;-117.188;2023-05-10T14:01:59;12.95;;;2.22;;
37847;SDS011;23688;33.130;-117.188;2023-05-10T14:04:28;14.43;;;2.40;;
37847;SDS011;23688;33.130;-117.188;2023-05-10T14:06:54;15.75;;;3.00;;
37847;SDS011;23688;33.130;-117.188;2023-05-10T14:09:21;14.13;;;2.00;;
37847;SDS011;23688;33.130;-117.188;2023-05-10T14:11:47;15.10;;;2.58;;
37847;SDS011;23688;33.130;-117.188;2023-05-10T14:14:13;19.83;;;2.67;;
37847;SDS011;23688;33.130;-117.188;2023-05-10T14:16:44;18.08;;;2.25;;
37847;SDS011;23688;33.130;-117.188;2023-05-10T14:19:10;12.10;;;2.30;;
37847;SDS011;23688;33.130;-117.188;2023-05-10T14:21:37;7.65;;;1.88;;
37847;SDS011;23688;33.130;-117.188;2023-05-10T14:24:04;10.32;;;1.98;;
37847;SDS011;23688;33.130;-117.188;2023-05-10T14:26:32;13.32;;;2.88;;
37847;SDS011;23688;33.130;-117.188;2023-05-10T14:28:59;12.93;;;3.13;;
37847;SDS011;23688;33.130;-117.188;2023-05-10T14:31:26;10.45;;;2.05;;
37847;SDS011;23688;33.130;-117.188;2023-05-10T14:33:52;13.10;;;2.65;;
37847;SDS011;23688;33.130;-117.188;2023-05-10T14:36:19;12.57;;;2.88;;
37847;SDS011;23688;33.130;-117.188;2023-05-10T14:38:45;14.32;;;2.25;;
37847;SDS011;23688;33.130;-117.188;2023-05-10T14:41:11;11.18;;;2.10;;
37847;SDS011;23688;33.130;-117.188;2023-05-10T14:43:42;13.63;;;2.95;;
37847;SDS011;23688;33.130;-117.188;2023-05-10T14:46:09;12.13;;;2.25;;
37847;SDS011;23688;33.130;-117.188;2023-05-10T14:48:35;11.07;;;2.05;;
37847;SDS011;23688;33.130;-117.188;2023-05-10T14:51:01;15.60;;;2.28;;
37847;SDS011;23688;33.130;-117.188;2023-05-10T14:53:28;17.33;;;3.22;;
37847;SDS011;23688;33.130;-117.188;2023-05-10T14:55:55;13.63;;;2.20;;
37847;SDS011;23688;33.130;-117.188;2023-05-10T14:58:21;16.55;;;2.35;;
37847;SDS011;23688;33.130;-117.188;2023-05-10T15:00:47;14.27;;;2.65;;
37847;SDS011;23688;33.130;-117.188;2023-05-10T15:03:13;14.07;;;2.42;;
37847;SDS011;23688;33.130;-117.188;2023-05-10T15:05:40;11.18;;;2.67;;
37847;SDS011;23688;33.130;-117.188;2023-05-10T15:08:06;8.90;;;2.92;;
37847;SDS011;23688;33.130;-117.188;2023-05-10T15:10:34;8.75;;;2.13;;
37847;SDS011;23688;33.130;-117.188;2023-05-10T15:13:03;16.42;;;2.20;;